Armada Township, Michigan
Current Conditions -  °F | °C
As of 11:18 PM on Monday 20 Oct 2014 (Local Time) from KMTC Reporting Station
Light Rain Light Rain  
Wind Chill: 52°   Ceiling: 3800
Heat Index: 52°   Visibility: 10mi
Dew Point: 52°   Wind: 12mph
Humidity: 100%   Direction: 330°NNW
Pressure: 29.84"   Gusts: NA
Location:  42.8463°N, 82.9201°W
Report Text: KMTC 210318Z AUTO 33010KT 10SM -RA SCT009 SCT016 OVC038 11/11 A2984 RMK AO2
Loading
Personal Weather Stations






























Interactive Weather Map
Tropical Storm Tracking
New forecast layout! Learn more

10-Day Weather Forecast

Advertisements
Track Severe Weather on mobile